Indian Creek, Colorado
Current Conditions -  °F | °C
As of 9:07 PM on Sunday 21 Dec 2014 (Local Time) from KVTP Reporting Station
Haze Haze  
Wind Chill: 16°   Ceiling: 1300
Heat Index: 27°   Visibility: 5mi
Dew Point: 23°   Wind: 13mph
Humidity: 86%   Direction: 200°SSW
Pressure: 29.74"   Gusts: 26mph
Location:  37.5011°N, 105.046°W
Report Text: KVTP 220407Z AUTO 20011G23KT 170V230 5SM BR SCT006 BKN013 OVC047 M03/M05 A2974 RMK AO2
Loading
Personal Weather Stations






























Interactive Weather Map New forecast layout! Learn more

10-Day Weather Forecast

Advertisements
Track Severe Weather on mobile